Time;durP1;ratioP1;P1;durP2;ratioP2;P2;SDS_P1;SDS_P2;PMS_P1;PMS_P2;Temp;Humidity;BMP_temperature;BMP_pressure;BME280_temperature;BME280_humidity;BME280_pressure;Samples;Min_cycle;Max_cycle;Signal;HPM_P1;HPM_P2
2023/10/08 00:01:57;;;;;;;45.83;26.58;;;;;;;18.14;71.38;101551.94;4995478;28;20054;-78
2023/10/08 00:04:55;;;;;;;47.17;26.70;;;;;;;17.67;73.26;101548.88;4998758;28;20046;-77
2023/10/08 00:07:50;;;;;;;42.92;26.95;;;;;;;17.28;75.18;101547.50;4996208;28;20042;-77
2023/10/08 00:10:43;;;;;;;48.58;27.67;;;;;;;17.67;74.15;101543.38;4999656;28;20038;-78
2023/10/08 00:13:39;;;;;;;43.38;27.55;;;;;;;17.77;72.72;101536.59;5001583;28;20046;-77
2023/10/08 00:16:33;;;;;;;40.53;25.50;;;;;;;17.77;73.17;101536.59;5002399;28;20039;-77
2023/10/08 00:19:26;;;;;;;43.85;25.80;;;;;;;17.87;72.41;101530.66;5010878;28;20046;-78
2023/10/08 00:22:20;;;;;;;42.78;24.60;;;;;;;18.08;71.12;101533.28;5009628;28;20038;-77
2023/10/08 00:25:16;;;;;;;42.55;24.63;;;;;;;18.31;70.00;101528.88;5014436;28;20421;-78
2023/10/08 00:28:10;;;;;;;;;;;;;;;18.21;70.50;101532.09;5018647;28;20038;-78
2023/10/08 00:31:13;;;;;;;43.22;24.10;;;;;;;18.06;70.47;101530.06;5016100;28;19913;-78
2023/10/08 00:34:08;;;;;;;41.00;24.77;;;;;;;17.86;71.47;101523.53;5006045;28;20042;-78
2023/10/08 00:37:03;;;;;;;32.38;19.85;;;;;;;17.74;72.38;101524.31;5016975;28;20452;-78
2023/10/08 00:39:57;;;;;;;43.53;26.17;;;;;;;18.01;71.84;101522.03;5022542;28;20404;-78
2023/10/08 00:42:52;;;;;;;38.15;24.23;;;;;;;18.05;70.89;101522.94;5004867;28;20404;-78
2023/10/08 00:45:50;;;;;;;41.67;25.45;;;;;;;17.93;71.33;101519.03;5010301;28;20042;-78
2023/10/08 00:48:44;;;;;;;40.72;25.20;;;;;;;17.86;71.56;101510.56;4996094;28;20042;-78
2023/10/08 00:51:40;;;;;;;38.92;24.00;;;;;;;17.60;72.64;101504.59;4996856;28;20046;-78
2023/10/08 00:54:35;;;;;;;35.47;22.35;;;;;;;17.72;71.58;101504.63;4995673;28;20050;-78
2023/10/08 00:57:30;;;;;;;39.28;22.88;;;;;;;17.53;71.90;101505.13;4983549;28;20042;-78
2023/10/08 01:00:25;;;;;;;36.38;23.27;;;;;;;17.47;71.87;101501.00;4980352;28;20081;-77
2023/10/08 01:03:26;;;;;;;42.25;25.38;;;;;;;17.28;73.64;101486.22;4997884;28;20034;-78
2023/10/08 01:06:21;;;;;;;40.63;23.77;;;;;;;17.54;73.06;101483.94;4996626;28;20046;-78
2023/10/08 01:09:21;;;;;;;41.58;23.63;;;;;;;17.85;71.99;101478.69;4995113;28;20042;-78
2023/10/08 01:12:19;;;;;;;42.53;21.75;;;;;;;18.05;70.42;101481.66;4994187;28;20042;-78
2023/10/08 01:15:19;;;;;;;33.65;20.40;;;;;;;17.84;71.22;101479.84;4994769;28;20038;-78
2023/10/08 01:18:16;;;;;;;40.95;20.45;;;;;;;17.59;72.14;101489.25;4994748;28;20051;-77
2023/10/08 01:21:17;;;;;;;35.28;21.63;;;;;;;17.36;72.92;101480.63;4994421;28;20042;-78
2023/10/08 01:24:12;;;;;;;42.83;21.42;;;;;;;17.05;73.76;101475.66;4993797;28;20501;-78
2023/10/08 01:27:11;;;;;;;31.38;19.95;;;;;;;17.18;74.31;101472.91;4994897;28;20030;-78
2023/10/08 01:30:17;;;;;;;33.95;20.88;;;;;;;17.57;72.17;101466.78;4993990;28;20405;-77
2023/10/08 01:33:20;;;;;;;32.72;20.40;;;;;;;17.78;70.57;101475.72;4993778;28;20042;-78
2023/10/08 01:36:14;;;;;;;31.13;19.83;;;;;;;17.42;71.75;101473.72;4994391;28;20038;-78
2023/10/08 01:39:10;;;;;;;31.75;19.73;;;;;;;17.57;71.82;101471.47;4995556;28;20501;-78
2023/10/08 01:42:04;;;;;;;32.85;20.98;;;;;;;17.81;70.62;101461.28;4995522;28;20038;-79
2023/10/08 01:44:59;;;;;;;33.30;17.85;;;;;;;17.92;69.86;101459.66;4985016;28;20038;-78
2023/10/08 01:47:54;;;;;;;26.08;16.52;;;;;;;17.85;69.53;101456.69;4993556;28;20038;-78
2023/10/08 01:50:49;;;;;;;29.38;17.50;;;;;;;17.74;70.21;101460.25;4984151;28;20405;-78
2023/10/08 01:53:47;;;;;;;29.33;18.92;;;;;;;17.62;71.46;101457.53;5002643;28;20041;-78
2023/10/08 01:56:44;;;;;;;29.65;16.90;;;;;;;17.86;70.45;101450.03;5014565;28;20496;-78
2023/10/08 01:59:39;;;;;;;29.17;16.70;;;;;;;18.03;69.82;101453.69;5013269;28;20041;-78
2023/10/08 02:02:34;;;;;;;26.75;16.27;;;;;;;18.07;69.94;101451.84;5014543;28;20034;-78
2023/10/08 02:05:28;;;;;;;27.80;16.45;;;;;;;18.06;70.72;101441.97;5017963;28;20042;-78
2023/10/08 02:08:31;;;;;;;22.90;15.65;;;;;;;18.10;70.96;101440.13;5014181;28;20432;-78
2023/10/08 02:11:26;;;;;;;29.77;16.98;;;;;;;18.18;70.20;101441.94;5014676;28;20054;-78
2023/10/08 02:14:23;;;;;;;26.15;16.42;;;;;;;18.06;70.22;101459.28;5015184;28;20046;-78
2023/10/08 02:17:18;;;;;;;23.08;14.40;;;;;;;17.80;70.55;101445.91;5015548;28;20046;-78
2023/10/08 02:20:12;;;;;;;23.55;14.80;;;;;;;17.84;71.18;101433.06;5019080;28;20038;-78
2023/10/08 02:23:09;;;;;;;27.40;15.25;;;;;;;18.01;70.10;101448.53;5016590;28;20042;-78
2023/10/08 02:26:04;;;;;;;21.63;14.05;;;;;;;17.93;70.57;101447.50;5018765;28;20405;-77
2023/10/08 02:28:57;;;;;;;28.88;16.02;;;;;;;17.84;70.49;101449.56;5018963;28;20038;-78
2023/10/08 02:31:51;;;;;;;28.83;17.63;;;;;;;17.83;70.75;101439.72;5003803;28;20041;-78
2023/10/08 02:34:44;;;;;;;26.77;16.75;;;;;;;17.74;71.85;101435.47;5020809;28;20054;-78
2023/10/08 02:37:39;;;;;;;25.55;16.40;;;;;;;17.83;72.28;101434.19;5018486;28;20038;-77
2023/10/08 02:40:35;;;;;;;27.40;17.17;;;;;;;17.86;72.45;101429.97;5015538;28;20041;-77
2023/10/08 02:43:30;;;;;;;28.80;16.52;;;;;;;17.87;73.24;101428.84;5015934;28;20042;-78
2023/10/08 02:46:26;;;;;;;32.60;18.83;;;;;;;17.94;73.58;101432.59;5016049;28;20041;-76
2023/10/08 02:49:26;;;;;;;29.08;17.60;;;;;;;18.01;73.52;101431.19;5016198;28;20034;-78
2023/10/08 02:52:20;;;;;;;31.13;17.70;;;;;;;17.94;73.81;101420.78;5016181;28;20050;-77
2023/10/08 02:55:33;;;;;;;30.13;16.88;;;;;;;18.01;74.10;101409.19;5016172;28;20042;-78
2023/10/08 02:58:28;;;;;;;31.65;16.55;;;;;;;17.93;73.19;101406.22;5003571;28;20053;-78
2023/10/08 03:01:20;;;;;;;28.70;16.77;;;;;;;17.98;73.54;101407.13;5001967;28;20058;-78
2023/10/08 03:04:18;;;;;;;28.50;15.60;;;;;;;18.03;73.61;101406.91;5005048;28;20412;-78
2023/10/08 03:07:20;;;;;;;29.17;15.75;;;;;;;18.05;73.96;101410.09;5015976;28;20493;-78
2023/10/08 03:10:21;;;;;;;29.92;16.60;;;;;;;18.09;74.18;101405.47;5005566;28;20045;-77
2023/10/08 03:13:16;;;;;;;30.13;17.50;;;;;;;18.17;74.91;101393.53;5015408;28;20428;-78
2023/10/08 03:16:13;;;;;;;26.33;16.05;;;;;;;18.27;74.45;101390.28;5020990;28;20041;-78
2023/10/08 03:19:11;;;;;;;27.92;16.75;;;;;;;18.31;74.26;101388.44;5016740;28;20045;-77
2023/10/08 03:22:06;;;;;;;32.03;17.65;;;;;;;18.19;73.90;101393.97;5015784;28;20412;-78
2023/10/08 03:25:00;;;;;;;27.63;16.50;;;;;;;18.13;73.63;101400.91;5019515;28;20038;-77
2023/10/08 03:27:59;;;;;;;26.45;16.75;;;;;;;18.13;74.22;101392.66;5017046;28;20038;-78
2023/10/08 03:30:54;;;;;;;26.27;14.63;;;;;;;18.12;73.98;101404.78;5005202;28;20046;-77
2023/10/08 03:33:54;;;;;;;25.70;17.40;;;;;;;18.12;74.33;101402.03;5017346;28;20041;-78
2023/10/08 03:36:50;;;;;;;25.88;14.70;;;;;;;18.09;74.30;101398.03;5014509;28;20038;-77
2023/10/08 03:40:00;;;;;;;25.80;13.95;;;;;;;18.06;74.26;101395.19;5016056;28;20042;-78
2023/10/08 03:42:55;;;;;;;35.63;13.60;;;;;;;18.12;73.40;101393.78;5015273;28;20038;-78
2023/10/08 03:45:56;;;;;;;19.70;11.30;;;;;;;18.32;72.87;101396.34;5019182;28;20045;-78
2023/10/08 03:48:54;;;;;;;16.02;10.65;;;;;;;18.71;72.58;101391.13;5016050;28;20030;-78
2023/10/08 03:51:48;;;;;;;15.48;8.43;;;;;;;19.23;70.11;101399.94;5002607;28;20058;-77
2023/10/08 03:54:48;;;;;;;14.70;10.18;;;;;;;19.55;69.05;101391.66;5011967;28;20041;-78
2023/10/08 03:57:45;;;;;;;14.10;10.10;;;;;;;19.39;68.41;101391.66;5022538;28;20436;-78
2023/10/08 04:00:41;;;;;;;14.80;9.98;;;;;;;19.44;67.49;101371.28;5020620;28;20042;-78
2023/10/08 04:03:57;;;;;;;16.58;9.38;;;;;;;19.61;68.73;101382.72;5018126;28;20044;-78
2023/10/08 04:06:51;;;;;;;17.17;10.18;;;;;;;19.37;66.95;101385.69;5021611;28;20069;-79
2023/10/08 04:09:46;;;;;;;16.50;9.80;;;;;;;19.20;67.96;101386.06;5017652;28;20038;-79
2023/10/08 04:12:43;;;;;;;12.65;8.55;;;;;;;19.83;67.32;101388.72;5021804;28;20048;-78
2023/10/08 04:15:40;;;;;;;12.50;8.60;;;;;;;20.04;66.97;101389.19;5019226;28;20454;-78
2023/10/08 04:18:39;;;;;;;13.80;9.10;;;;;;;19.98;65.87;101385.09;5017090;28;20045;-79
2023/10/08 04:21:35;;;;;;;9.80;6.68;;;;;;;20.06;66.17;101387.66;5020409;28;20073;-78
2023/10/08 04:24:34;;;;;;;10.07;7.07;;;;;;;20.13;64.99;101378.72;5017894;28;20113;-78
2023/10/08 04:27:29;;;;;;;12.00;7.03;;;;;;;20.03;64.78;101379.28;5020761;28;20045;-78
2023/10/08 04:30:21;;;;;;;;;;;;;;;19.84;65.08;101385.63;5020177;28;20404;-78
2023/10/08 04:33:16;;;;;;;11.50;6.95;;;;;;;19.75;66.99;101384.22;5021735;28;19913;-79
2023/10/08 04:36:12;;;;;;;13.43;7.35;;;;;;;19.91;65.61;101387.75;5020307;28;20057;-78
2023/10/08 04:39:13;;;;;;;9.18;6.53;;;;;;;19.81;65.12;101382.78;5007344;28;20144;-78
2023/10/08 04:42:13;;;;;;;10.40;6.70;;;;;;;19.59;65.14;101382.31;5018596;28;20053;-78
2023/10/08 04:45:08;;;;;;;10.30;6.25;;;;;;;19.84;66.08;101376.53;5018445;28;20049;-78
2023/10/08 04:48:09;;;;;;;9.55;6.05;;;;;;;20.54;64.70;101368.09;5019234;28;20049;-78
2023/10/08 04:51:03;;;;;;;14.40;6.38;;;;;;;20.70;64.04;101371.56;5005840;28;20049;-78
2023/10/08 04:53:58;;;;;;;13.35;5.95;;;;;;;21.01;62.94;101365.78;5007589;28;20048;-77
2023/10/08 04:56:53;;;;;;;10.18;6.35;;;;;;;21.08;62.55;101370.63;5007791;28;20053;-78
2023/10/08 04:59:47;;;;;;;7.90;5.43;;;;;;;21.01;62.42;101382.38;5005124;28;20057;-77
2023/10/08 05:02:54;;;;;;;9.02;6.05;;;;;;;21.12;62.10;101382.53;4998656;28;20067;-78
2023/10/08 05:06:07;;;;;;;8.35;5.72;;;;;;;21.19;62.12;101393.75;4995739;28;20053;-78
2023/10/08 05:09:10;;;;;;;9.95;5.63;;;;;;;20.79;62.23;101385.91;4999761;28;20049;-78
2023/10/08 05:12:10;;;;;;;10.40;5.57;;;;;;;20.52;61.38;101381.50;5008782;28;20535;-77
2023/10/08 05:21:25;;;;;;;9.85;5.20;;;;;;;20.71;63.15;101379.47;5000844;28;20555;-78
2023/10/08 05:24:27;;;;;;;10.70;5.70;;;;;;;20.98;62.07;101366.50;5014325;28;20045;-77
2023/10/08 05:27:56;;;;;;;12.88;5.03;;;;;;;21.04;61.47;101372.53;5011935;28;20514;-77
2023/10/08 05:31:59;;;;;;;11.77;4.90;;;;;;;21.21;61.27;101378.38;5013783;28;20113;-77
2023/10/08 05:34:17;;;;;;;9.48;5.20;;;;;;;20.76;60.79;101392.19;5007570;28;20056;-77
2023/10/08 05:37:31;;;;;;;9.75;5.03;;;;;;;20.32;62.09;101372.41;5013508;28;20045;-77
2023/10/08 05:40:54;;;;;;;12.13;5.18;;;;;;;20.36;62.05;101379.63;5016578;28;20516;-78
2023/10/08 05:46:46;;;;;;;11.40;4.78;;;;;;;20.56;62.80;101379.59;5016925;28;20053;-78
2023/10/08 05:49:42;;;;;;;7.80;4.47;;;;;;;21.07;61.53;101383.66;5007551;28;20061;-77
2023/10/08 05:53:29;;;;;;;7.65;4.65;;;;;;;21.11;60.04;101389.25;5008481;28;20049;-77
2023/10/08 05:56:00;;;;;;;11.57;4.85;;;;;;;21.17;59.66;101387.78;5011534;28;20534;-78
2023/10/08 05:59:15;;;;;;;10.48;4.43;;;;;;;21.24;60.21;101393.44;5013811;28;20057;-77
2023/10/08 06:03:31;;;;;;;11.82;4.57;;;;;;;21.28;58.96;101395.06;5013746;28;20065;-78
2023/10/08 06:05:33;;;;;;;5.70;3.63;;;;;;;21.44;59.41;101394.13;5009186;28;20052;-77
2023/10/08 06:08:48;;;;;;;7.05;3.33;;;;;;;21.51;58.93;101403.34;5013058;28;20412;-77
2023/10/08 06:14:52;;;;;;;6.50;3.50;;;;;;;21.47;58.75;101410.00;5012505;28;20044;-77
2023/10/08 06:18:04;;;;;;;10.00;3.80;;;;;;;21.23;57.85;101409.22;5016766;28;20053;-78
2023/10/08 06:21:09;;;;;;;6.32;3.55;;;;;;;21.21;59.07;101410.78;5013499;28;20543;-77
2023/10/08 06:24:04;;;;;;;7.97;3.05;;;;;;;21.27;57.75;101418.41;5016107;28;20052;-77
2023/10/08 06:26:59;;;;;;;10.63;3.83;;;;;;;21.37;57.86;101416.16;5013431;28;20045;-77
2023/10/08 06:29:58;;;;;;;8.43;3.85;;;;;;;21.45;57.76;101417.88;5016373;28;20400;-77
2023/10/08 06:32:53;;;;;;;16.90;3.85;;;;;;;21.29;57.44;101416.03;5013672;28;20045;-77
2023/10/08 06:38:56;;;;;;;7.65;3.10;;;;;;;21.40;57.13;101423.72;5013755;28;20060;-77
2023/10/08 06:41:48;;;;;;;7.97;3.70;;;;;;;21.44;56.78;101424.56;5012753;28;20547;-77
2023/10/08 06:44:43;;;;;;;9.23;3.28;;;;;;;21.50;57.25;101431.38;5011045;28;20045;-78
2023/10/08 06:47:38;;;;;;;8.20;3.72;;;;;;;21.49;56.90;101438.09;5014211;28;20053;-78
2023/10/08 06:50:32;;;;;;;9.60;3.17;;;;;;;21.59;57.21;101443.78;5012045;28;20045;-78
2023/10/08 06:53:29;;;;;;;8.63;3.95;;;;;;;21.55;57.19;101428.31;5014998;28;20057;-78
2023/10/08 06:56:24;;;;;;;6.07;3.00;;;;;;;21.57;57.02;101431.50;5013240;28;20054;-78
2023/10/08 06:59:22;;;;;;;7.22;3.17;;;;;;;21.57;57.01;101437.03;4997318;28;20137;-77
2023/10/08 07:02:17;;;;;;;10.68;3.63;;;;;;;21.52;56.01;101431.81;5013243;28;20057;-77
2023/10/08 07:05:12;;;;;;;4.63;3.20;;;;;;;21.66;56.37;101423.72;5011023;28;20057;-77
2023/10/08 07:08:07;;;;;;;10.38;4.00;;;;;;;21.68;55.89;101422.19;5014600;28;20519;-76
2023/10/08 07:10:59;;;;;;;8.75;2.90;;;;;;;21.67;55.99;101420.59;5013421;28;20064;-77
2023/10/08 07:13:52;;;;;;;10.98;3.85;;;;;;;21.66;55.97;101435.59;5018889;28;20069;-77
2023/10/08 07:16:46;;;;;;;12.20;4.60;;;;;;;21.63;55.54;101430.81;5017409;28;20511;-78
2023/10/08 07:19:39;;;;;;;;;;;;;;;21.64;56.60;101426.88;5015196;28;20041;-76
2023/10/08 07:22:33;;;;;;;9.50;4.50;;;;;;;21.59;55.23;101418.88;5018101;28;19913;-77
2023/10/08 07:25:36;;;;;;;14.35;4.32;;;;;;;21.67;55.81;101428.09;5016262;28;20045;-78
2023/10/08 07:28:30;;;;;;;7.85;3.90;;;;;;;21.75;55.62;101446.41;5018262;28;20045;-77
2023/10/08 07:31:26;;;;;;;8.55;3.83;;;;;;;21.77;55.78;101442.09;5017014;28;20044;-78
2023/10/08 07:34:27;;;;;;;6.85;3.75;;;;;;;21.84;56.10;101435.84;5004777;28;20053;-77
2023/10/08 07:37:23;;;;;;;10.60;3.78;;;;;;;21.86;56.11;101444.59;5010084;28;20053;-77
2023/10/08 07:40:18;;;;;;;9.48;3.42;;;;;;;21.81;55.71;101431.06;5007643;28;20048;-77
2023/10/08 07:43:14;;;;;;;10.02;3.83;;;;;;;21.95;53.76;101438.81;5012609;28;20057;-75
2023/10/08 07:46:09;;;;;;;16.50;3.55;;;;;;;22.25;52.58;101436.06;5004405;28;20045;-75
2023/10/08 07:49:04;;;;;;;9.75;3.25;;;;;;;22.47;51.67;101440.66;5003222;28;20422;-76
2023/10/08 07:51:58;;;;;;;7.80;3.15;;;;;;;22.33;49.78;101430.22;5009965;28;20041;-75
2023/10/08 07:54:56;;;;;;;9.43;2.83;;;;;;;22.53;49.25;101441.94;5009905;28;20045;-76
2023/10/08 07:57:50;;;;;;;14.90;3.40;;;;;;;22.53;49.38;101439.16;5015400;28;20068;-79
2023/10/08 08:00:51;;;;;;;8.93;3.10;;;;;;;22.64;49.49;101440.06;5007113;28;20053;-75
2023/10/08 08:03:45;;;;;;;9.45;3.20;;;;;;;22.74;49.00;101428.34;5013275;28;20274;-75
2023/10/08 08:06:37;;;;;;;13.10;3.05;;;;;;;22.80;49.69;101428.78;5014195;28;20057;-76
2023/10/08 08:09:37;;;;;;;11.13;3.17;;;;;;;22.70;48.91;101433.03;5011297;28;20049;-75
2023/10/08 08:12:32;;;;;;;11.65;3.45;;;;;;;22.41;47.64;101434.66;5013978;28;20045;-74
2023/10/08 08:15:27;;;;;;;8.63;3.20;;;;;;;22.50;47.22;101434.38;5011984;28;20057;-73
2023/10/08 08:18:22;;;;;;;12.77;3.40;;;;;;;22.69;46.95;101436.16;5014513;28;20050;-73
2023/10/08 08:21:17;;;;;;;13.75;3.50;;;;;;;22.69;47.65;101436.97;5012997;28;20062;-73
2023/10/08 08:24:11;;;;;;;8.70;3.08;;;;;;;22.77;47.78;101438.66;5005400;28;20049;-74
2023/10/08 08:27:23;;;;;;;11.10;3.90;;;;;;;22.74;47.70;101431.09;4998546;28;20053;-74
2023/10/08 08:30:18;;;;;;;10.10;3.72;;;;;;;22.92;47.57;101445.13;5007527;28;20041;-74
2023/10/08 08:33:13;;;;;;;11.23;3.88;;;;;;;23.11;47.23;101430.28;5005534;28;20057;-73
2023/10/08 08:36:12;;;;;;;9.60;3.90;;;;;;;23.03;47.43;101440.50;5012195;28;20045;-74
2023/10/08 08:39:07;;;;;;;10.93;3.72;;;;;;;23.07;47.33;101443.28;5015357;28;20049;-74
2023/10/08 08:42:06;;;;;;;8.82;2.90;;;;;;;23.14;47.15;101435.84;4996302;28;20045;-75
2023/10/08 08:44:59;;;;;;;10.65;3.15;;;;;;;23.18;47.20;101435.88;4993896;28;20049;-73
2023/10/08 08:47:51;;;;;;;17.98;3.38;;;;;;;23.20;46.44;101439.88;4996554;28;20058;-73
2023/10/08 08:50:44;;;;;;;15.00;3.85;;;;;;;23.37;45.89;101435.63;5000000;28;20049;-73
2023/10/08 08:53:38;;;;;;;11.68;3.22;;;;;;;23.52;44.92;101440.13;4998161;28;20045;-73
2023/10/08 08:56:33;;;;;;;13.23;3.75;;;;;;;23.41;43.86;101439.25;4995940;28;20050;-73
2023/10/08 08:59:27;;;;;;;13.00;2.80;;;;;;;23.47;42.87;101446.03;4993283;28;20061;-73
2023/10/08 09:02:22;;;;;;;10.85;3.40;;;;;;;23.51;43.43;101452.44;4996842;28;20053;-73
2023/10/08 09:05:33;;;;;;;10.95;2.85;;;;;;;23.60;42.89;101441.78;4994763;28;20046;-72
2023/10/08 09:08:35;;;;;;;6.10;2.75;;;;;;;23.80;42.61;101443.13;4996514;28;20060;-73
2023/10/08 09:11:29;;;;;;;7.82;2.28;;;;;;;23.73;42.57;101445.03;4995086;28;20049;-73
2023/10/08 09:14:22;;;;;;;16.77;3.20;;;;;;;23.79;42.65;101441.50;4998253;28;20053;-73
2023/10/08 09:17:15;;;;;;;10.20;3.10;;;;;;;23.79;42.46;101449.06;4996227;28;20050;-73
2023/10/08 09:20:15;;;;;;;8.30;3.20;;;;;;;23.87;42.41;101447.94;4993686;28;20049;-73
2023/10/08 09:23:22;;;;;;;6.38;2.63;;;;;;;23.82;42.90;101446.28;5000103;28;20061;-73
2023/10/08 09:26:18;;;;;;;8.75;3.97;;;;;;;23.67;42.96;101441.06;5009806;28;20092;-73
2023/10/08 09:29:16;;;;;;;16.70;2.78;;;;;;;23.66;42.49;101445.81;5011418;28;20045;-75
2023/10/08 09:32:13;;;;;;;9.95;3.05;;;;;;;23.88;42.33;101457.84;4999528;28;20065;-74
2023/10/08 09:35:11;;;;;;;29.52;6.38;;;;;;;23.78;43.13;101448.25;5000156;28;20048;-73
2023/10/08 09:38:06;;;;;;;12.98;2.78;;;;;;;23.92;42.26;101446.75;5002073;28;20057;-72
2023/10/08 09:41:00;;;;;;;25.13;4.78;;;;;;;23.81;42.92;101444.72;5009358;28;20053;-73
2023/10/08 09:43:56;;;;;;;18.10;3.50;;;;;;;23.22;43.99;101445.00;4996262;28;20053;-72
2023/10/08 09:46:53;;;;;;;20.88;3.00;;;;;;;22.74;46.22;101444.97;4994631;28;20520;-72
2023/10/08 09:49:55;;;;;;;12.93;3.75;;;;;;;22.75;46.53;101440.22;4996709;28;20045;-73
2023/10/08 09:52:58;;;;;;;211.30;44.10;;;;;;;22.75;47.05;101443.81;4994586;28;20122;-73
2023/10/08 09:55:55;;;;;;;57.85;11.30;;;;;;;22.62;47.66;101445.19;4992549;28;20042;-72
2023/10/08 09:58:52;;;;;;;21.67;6.45;;;;;;;22.68;48.10;101440.09;4996694;28;20042;-72
2023/10/08 10:01:47;;;;;;;15.38;4.05;;;;;;;22.62;48.98;101445.19;5002867;28;20053;-72
2023/10/08 10:04:46;;;;;;;7.75;4.00;;;;;;;22.60;49.60;101439.25;4999337;28;20046;-73
2023/10/08 10:07:42;;;;;;;18.50;5.03;;;;;;;22.63;49.50;101441.25;5007183;28;20060;-73
2023/10/08 10:10:38;;;;;;;8.90;3.55;;;;;;;22.56;49.87;101439.19;5006276;28;20041;-75
2023/10/08 10:13:41;;;;;;;16.60;3.78;;;;;;;22.65;50.01;101441.69;4999627;28;20429;-73
2023/10/08 10:16:39;;;;;;;9.68;4.05;;;;;;;22.53;50.04;101439.16;5006721;28;20053;-73
2023/10/08 10:19:31;;;;;;;7.40;3.45;;;;;;;22.58;50.49;101433.28;5006905;28;20054;-73
2023/10/08 10:22:38;;;;;;;9.32;4.00;;;;;;;22.66;49.99;101432.16;5012302;28;20439;-74
2023/10/08 10:25:39;;;;;;;12.05;4.53;;;;;;;22.57;50.25;101424.16;5011560;28;20045;-73
2023/10/08 10:28:33;;;;;;;7.80;3.75;;;;;;;22.56;50.01;101422.56;4993839;28;20054;-73
2023/10/08 10:31:26;;;;;;;12.70;3.75;;;;;;;22.50;49.85;101424.06;4994009;28;20049;-73
2023/10/08 10:34:21;;;;;;;11.13;4.28;;;;;;;22.52;49.48;101415.38;5007486;28;20422;-73
2023/10/08 10:37:19;;;;;;;9.32;3.50;;;;;;;22.60;48.91;101412.28;4992284;28;20053;-73
2023/10/08 10:40:14;;;;;;;9.57;3.65;;;;;;;22.56;48.71;101417.00;4995783;28;20057;-73
2023/10/08 10:43:06;;;;;;;13.15;3.35;;;;;;;22.53;49.00;101401.16;4992907;28;20054;-73
2023/10/08 10:46:01;;;;;;;8.95;3.50;;;;;;;22.56;48.97;101400.38;4996555;28;20053;-73
2023/10/08 10:49:07;;;;;;;8.55;2.90;;;;;;;22.52;49.59;101390.44;5010974;28;20045;-73
2023/10/08 10:52:02;;;;;;;;;;;;;;;22.54;49.66;101391.66;5009330;28;20060;-74
2023/10/08 10:55:17;;;;;;;10.57;3.25;;;;;;;22.44;50.11;101383.22;5014378;28;19914;-73
2023/10/08 10:58:16;;;;;;;7.53;2.85;;;;;;;22.72;48.22;101382.72;5015310;28;20053;-73
2023/10/08 11:01:15;;;;;;;8.48;3.63;;;;;;;22.65;47.68;101377.09;5006315;28;20061;-73
2023/10/08 11:04:15;;;;;;;7.38;2.85;;;;;;;22.72;46.80;101369.66;5008795;28;20423;-73
2023/10/08 11:07:10;;;;;;;10.93;3.53;;;;;;;22.77;46.20;101380.41;5002297;28;20053;-73
2023/10/08 11:10:09;;;;;;;16.33;3.75;;;;;;;22.66;46.49;101378.69;5010611;28;20041;-73
2023/10/08 11:13:04;;;;;;;12.90;3.25;;;;;;;22.70;46.82;101376.75;5010679;28;20165;-72
2023/10/08 11:15:59;;;;;;;14.00;3.30;;;;;;;22.69;46.96;101370.41;5018450;28;20053;-74
2023/10/08 11:18:57;;;;;;;11.60;2.85;;;;;;;22.67;47.44;101364.44;5015672;28;20045;-73
2023/10/08 11:21:58;;;;;;;32.47;6.15;;;;;;;22.72;47.47;101355.81;5018777;28;20045;-73
2023/10/08 11:24:56;;;;;;;10.40;3.47;;;;;;;22.69;47.53;101356.56;5016001;28;20075;-73
2023/10/08 11:27:48;;;;;;;8.30;3.45;;;;;;;22.74;47.63;101359.00;5019422;28;20064;-73
2023/10/08 11:30:43;;;;;;;9.07;4.53;;;;;;;22.79;47.62;101355.88;5017014;28;20041;-73
2023/10/08 11:33:36;;;;;;;11.85;3.90;;;;;;;22.76;48.07;101348.31;5007319;28;20045;-73
2023/10/08 11:36:32;;;;;;;12.77;4.82;;;;;;;22.86;47.82;101344.81;5016267;28;20044;-74
2023/10/08 11:39:30;;;;;;;16.10;4.47;;;;;;;22.81;48.21;101347.97;5012788;28;20421;-73
2023/10/08 11:45:41;;;;;;;14.13;5.20;;;;;;;22.80;48.31;101343.63;5004758;28;20053;-73
2023/10/08 11:48:33;;;;;;;10.55;3.88;;;;;;;22.77;48.48;101344.38;5010409;28;20540;-73
2023/10/08 11:51:30;;;;;;;13.68;4.18;;;;;;;22.81;48.38;101339.63;5011496;28;20049;-73
2023/10/08 11:54:26;;;;;;;11.40;4.05;;;;;;;22.89;48.54;101335.75;5000809;28;20052;-74
2023/10/08 11:57:21;;;;;;;13.23;4.45;;;;;;;22.88;48.88;101333.34;5015641;28;20045;-73
2023/10/08 12:00:21;;;;;;;8.80;4.05;;;;;;;22.95;48.44;101331.47;5012685;28;20041;-74
2023/10/08 12:03:18;;;;;;;9.02;4.15;;;;;;;22.93;48.33;101319.13;5017261;28;20049;-73
2023/10/08 12:06:15;;;;;;;11.00;3.97;;;;;;;22.87;48.58;101332.56;5008888;28;20531;-74
2023/10/08 12:09:11;;;;;;;14.68;5.07;;;;;;;22.92;48.05;101323.09;5013787;28;20057;-74
2023/10/08 12:12:09;;;;;;;11.15;4.10;;;;;;;22.88;47.82;101314.75;5017128;28;20048;-74
2023/10/08 12:15:01;;;;;;;12.10;5.10;;;;;;;23.01;47.53;101315.22;5014721;28;20057;-73
2023/10/08 12:21:06;;;;;;;18.77;4.03;;;;;;;22.91;48.18;101321.50;5014939;28;20061;-73
2023/10/08 12:24:01;;;;;;;14.05;5.03;;;;;;;23.03;47.63;101308.13;5018216;28;20045;-73
2023/10/08 12:26:56;;;;;;;14.23;4.63;;;;;;;23.03;47.73;101302.56;5016468;28;20041;-74
2023/10/08 12:29:50;;;;;;;12.75;6.00;;;;;;;23.12;47.82;101304.19;5012987;28;20099;-74
2023/10/08 12:32:47;;;;;;;16.95;5.13;;;;;;;23.08;48.01;101306.16;5002868;28;20042;-74
2023/10/08 12:35:43;;;;;;;15.05;5.55;;;;;;;23.14;48.12;101294.31;4995146;28;20598;-72
2023/10/08 12:38:37;;;;;;;12.88;5.70;;;;;;;23.17;48.47;101292.75;5005219;28;20041;-73
2023/10/08 12:41:35;;;;;;;17.23;5.05;;;;;;;23.13;48.68;101289.16;5016164;28;20057;-73
2023/10/08 12:44:27;;;;;;;15.23;5.20;;;;;;;23.19;48.60;101287.63;5013072;28;20053;-73
2023/10/08 12:47:21;;;;;;;11.50;5.40;;;;;;;23.16;48.63;101289.16;5016993;28;20049;-74
2023/10/08 12:50:17;;;;;;;11.50;4.72;;;;;;;23.13;48.99;101289.16;5014246;28;20505;-73
2023/10/08 12:53:09;;;;;;;10.80;5.00;;;;;;;23.02;49.31;101277.97;5011697;28;20053;-73
2023/10/08 12:56:09;;;;;;;17.17;5.45;;;;;;;23.04;49.38;101278.41;5015692;28;20044;-73
2023/10/08 12:59:07;;;;;;;15.10;5.05;;;;;;;22.94;49.64;101268.81;5012510;28;20408;-72
2023/10/08 13:02:07;;;;;;;10.50;5.15;;;;;;;23.12;48.86;101271.72;5008605;28;20041;-73
2023/10/08 13:05:01;;;;;;;12.38;5.55;;;;;;;23.24;48.75;101265.03;4994275;28;20405;-72
2023/10/08 13:07:57;;;;;;;17.02;5.60;;;;;;;23.06;49.25;101269.69;5000029;28;20114;-73
2023/10/08 13:10:49;;;;;;;17.20;5.88;;;;;;;23.14;49.05;101268.56;5014944;28;20037;-73
2023/10/08 13:13:43;;;;;;;16.05;6.32;;;;;;;23.18;48.83;101269.38;5005167;28;20033;-73
2023/10/08 13:16:41;;;;;;;16.88;5.63;;;;;;;23.16;48.99;101258.66;5008854;28;20057;-73
2023/10/08 13:19:35;;;;;;;18.40;6.70;;;;;;;23.75;47.51;101259.38;5012663;28;20413;-72
2023/10/08 13:22:32;;;;;;;21.05;6.05;;;;;;;23.48;48.26;101260.81;5016532;28;20053;-73
2023/10/08 13:25:26;;;;;;;11.45;6.13;;;;;;;23.49;48.32;101257.66;5014327;28;20041;-73
2023/10/08 13:28:24;;;;;;;13.38;5.70;;;;;;;23.68;47.59;101251.78;5012018;28;20068;-73
2023/10/08 13:31:18;;;;;;;13.98;5.70;;;;;;;23.49;47.88;101256.88;5013870;28;20041;-73
2023/10/08 13:34:13;;;;;;;12.02;5.30;;;;;;;23.35;47.86;101252.81;5002741;28;20044;-72
2023/10/08 13:37:11;;;;;;;19.48;4.95;;;;;;;23.42;47.55;101249.25;5012166;28;20111;-72
2023/10/08 13:40:03;;;;;;;14.57;7.63;;;;;;;23.44;48.49;101252.47;5009689;28;20057;-73
2023/10/08 13:42:58;;;;;;;17.95;6.88;;;;;;;23.36;49.01;101248.88;5012381;28;20041;-73
2023/10/08 13:45:52;;;;;;;27.50;6.45;;;;;;;23.42;49.01;101249.25;5007340;28;20053;-73
2023/10/08 13:48:51;;;;;;;24.95;6.55;;;;;;;23.60;48.18;101241.84;5005052;28;20523;-72
2023/10/08 13:51:45;;;;;;;32.83;7.70;;;;;;;23.33;49.02;101246.84;5004895;28;20060;-72
2023/10/08 13:54:41;;;;;;;26.80;7.25;;;;;;;23.36;49.40;101237.78;5009856;28;20060;-72
2023/10/08 13:57:36;;;;;;;21.63;6.72;;;;;;;23.53;48.71;101230.72;5000940;28;20884;-77